sensor_id;sensor_type;location;lat;lon;timestamp;temperature;humidity
6863;DHT22;3470;48.738;9.616;2024-03-23T18:03:28;5.40;99.90
6863;DHT22;3470;48.738;9.616;2024-03-23T18:05:54;5.30;99.90
6863;DHT22;3470;48.738;9.616;2024-03-23T18:08:19;5.40;99.90
6863;DHT22;3470;48.738;9.616;2024-03-23T18:10:45;5.50;99.90
6863;DHT22;3470;48.738;9.616;2024-03-23T18:13:11;5.50;99.90
6863;DHT22;3470;48.738;9.616;2024-03-23T18:15:37;5.50;99.90
6863;DHT22;3470;48.738;9.616;2024-03-23T18:18:03;5.50;99.90
6863;DHT22;3470;48.738;9.616;2024-03-23T18:20:28;5.00;99.90
6863;DHT22;3470;48.738;9.616;2024-03-23T18:22:54;3.50;99.90
6863;DHT22;3470;48.738;9.616;2024-03-23T18:25:19;2.40;99.90
6863;DHT22;3470;48.738;9.616;2024-03-23T18:27:45;2.10;99.90
6863;DHT22;3470;48.738;9.616;2024-03-23T18:30:12;1.80;99.90
6863;DHT22;3470;48.738;9.616;2024-03-23T18:32:37;1.70;99.90
6863;DHT22;3470;48.738;9.616;2024-03-23T18:35:04;1.50;99.90
6863;DHT22;3470;48.738;9.616;2024-03-23T18:37:29;1.50;99.90
6863;DHT22;3470;48.738;9.616;2024-03-23T18:39:55;1.60;99.90
6863;DHT22;3470;48.738;9.616;2024-03-23T18:42:20;1.60;99.90
6863;DHT22;3470;48.738;9.616;2024-03-23T18:44:46;1.70;99.90
6863;DHT22;3470;48.738;9.616;2024-03-23T18:47:12;1.70;99.90
6863;DHT22;3470;48.738;9.616;2024-03-23T18:49:37;1.70;99.90
6863;DHT22;3470;48.738;9.616;2024-03-23T18:52:03;1.80;99.90
6863;DHT22;3470;48.738;9.616;2024-03-23T18:54:29;1.80;99.90
6863;DHT22;3470;48.738;9.616;2024-03-23T18:56:54;1.80;99.90
6863;DHT22;3470;48.738;9.616;2024-03-23T18:59:20;1.80;99.90
6863;DHT22;3470;48.738;9.616;2024-03-23T19:01:45;1.70;99.90
6863;DHT22;3470;48.738;9.616;2024-03-23T19:04:11;1.70;99.90
6863;DHT22;3470;48.738;9.616;2024-03-23T19:06:36;1.70;99.90
6863;DHT22;3470;48.738;9.616;2024-03-23T19:09:02;1.80;99.90
6863;DHT22;3470;48.738;9.616;2024-03-23T19:11:28;1.80;99.90
6863;DHT22;3470;48.738;9.616;2024-03-23T19:13:54;1.90;99.90
6863;DHT22;3470;48.738;9.616;2024-03-23T19:16:20;1.90;99.90
6863;DHT22;3470;48.738;9.616;2024-03-23T19:18:45;1.90;99.90
6863;DHT22;3470;48.738;9.616;2024-03-23T19:21:11;1.90;99.90
6863;DHT22;3470;48.738;9.616;2024-03-23T19:23:37;1.80;99.90
6863;DHT22;3470;48.738;9.616;2024-03-23T19:26:02;1.80;99.90
6863;DHT22;3470;48.738;9.616;2024-03-23T19:28:28;1.80;99.90
6863;DHT22;3470;48.738;9.616;2024-03-23T19:30:55;1.80;99.90
6863;DHT22;3470;48.738;9.616;2024-03-23T19:33:21;1.80;99.90
6863;DHT22;3470;48.738;9.616;2024-03-23T19:35:52;1.70;99.90
6863;DHT22;3470;48.738;9.616;2024-03-23T19:38:19;1.70;99.90
6863;DHT22;3470;48.738;9.616;2024-03-23T19:40:54;1.70;99.90
6863;DHT22;3470;48.738;9.616;2024-03-23T19:43:20;1.70;99.90
6863;DHT22;3470;48.738;9.616;2024-03-23T19:45:46;1.70;99.90
6863;DHT22;3470;48.738;9.616;2024-03-23T19:48:11;1.70;99.90
6863;DHT22;3470;48.738;9.616;2024-03-23T19:50:37;1.70;99.90
6863;DHT22;3470;48.738;9.616;2024-03-23T19:53:03;1.60;99.90
6863;DHT22;3470;48.738;9.616;2024-03-23T19:55:30;1.50;99.90
6863;DHT22;3470;48.738;9.616;2024-03-23T19:57:56;1.50;99.90
6863;DHT22;3470;48.738;9.616;2024-03-23T20:00:23;1.40;99.90
6863;DHT22;3470;48.738;9.616;2024-03-23T20:02:49;1.30;99.90
6863;DHT22;3470;48.738;9.616;2024-03-23T20:05:15;1.20;99.90
6863;DHT22;3470;48.738;9.616;2024-03-23T20:07:41;1.00;99.90
6863;DHT22;3470;48.738;9.616;2024-03-23T20:10:07;0.90;99.90
6863;DHT22;3470;48.738;9.616;2024-03-23T20:12:33;0.90;99.90
6863;DHT22;3470;48.738;9.616;2024-03-23T20:14:58;0.90;99.90
6863;DHT22;3470;48.738;9.616;2024-03-23T20:17:24;0.80;99.90
6863;DHT22;3470;48.738;9.616;2024-03-23T20:19:50;0.80;99.90
6863;DHT22;3470;48.738;9.616;2024-03-23T20:22:16;0.80;99.90
6863;DHT22;3470;48.738;9.616;2024-03-23T20:24:41;0.70;99.90
6863;DHT22;3470;48.738;9.616;2024-03-23T20:27:07;0.70;99.90
6863;DHT22;3470;48.738;9.616;2024-03-23T20:29:36;0.50;99.90
6863;DHT22;3470;48.738;9.616;2024-03-23T20:32:02;0.40;99.90
6863;DHT22;3470;48.738;9.616;2024-03-23T20:34:28;0.40;99.90
6863;DHT22;3470;48.738;9.616;2024-03-23T20:36:54;0.30;99.90
6863;DHT22;3470;48.738;9.616;2024-03-23T20:39:22;0.30;99.90
6863;DHT22;3470;48.738;9.616;2024-03-23T20:41:47;0.30;99.90
6863;DHT22;3470;48.738;9.616;2024-03-23T20:44:13;0.30;99.90
6863;DHT22;3470;48.738;9.616;2024-03-23T20:46:38;0.30;99.90
6863;DHT22;3470;48.738;9.616;2024-03-23T20:49:04;0.30;99.90
6863;DHT22;3470;48.738;9.616;2024-03-23T20:51:31;0.50;99.90
6863;DHT22;3470;48.738;9.616;2024-03-23T20:53:57;0.40;99.90
6863;DHT22;3470;48.738;9.616;2024-03-23T20:56:23;0.40;99.90
6863;DHT22;3470;48.738;9.616;2024-03-23T20:58:48;0.50;99.90
6863;DHT22;3470;48.738;9.616;2024-03-23T21:01:14;0.70;99.90
6863;DHT22;3470;48.738;9.616;2024-03-23T21:03:41;0.80;99.90
6863;DHT22;3470;48.738;9.616;2024-03-23T21:06:06;0.90;99.90
6863;DHT22;3470;48.738;9.616;2024-03-23T21:08:33;1.20;99.90
6863;DHT22;3470;48.738;9.616;2024-03-23T21:10:59;1.50;99.90
6863;DHT22;3470;48.738;9.616;2024-03-23T21:13:28;1.60;99.90
6863;DHT22;3470;48.738;9.616;2024-03-23T21:15:54;1.60;99.90
6863;DHT22;3470;48.738;9.616;2024-03-23T21:18:26;1.60;99.90
6863;DHT22;3470;48.738;9.616;2024-03-23T21:20:56;1.70;99.90
6863;DHT22;3470;48.738;9.616;2024-03-23T21:23:25;1.70;99.90
6863;DHT22;3470;48.738;9.616;2024-03-23T21:25:57;1.70;99.90
6863;DHT22;3470;48.738;9.616;2024-03-23T21:28:23;1.70;99.90
6863;DHT22;3470;48.738;9.616;2024-03-23T21:30:49;1.90;99.90
6863;DHT22;3470;48.738;9.616;2024-03-23T21:33:15;1.90;99.90
6863;DHT22;3470;48.738;9.616;2024-03-23T21:35:40;1.90;99.90
6863;DHT22;3470;48.738;9.616;2024-03-23T21:38:06;2.10;99.90
6863;DHT22;3470;48.738;9.616;2024-03-23T21:40:31;2.10;99.90
6863;DHT22;3470;48.738;9.616;2024-03-23T21:42:57;2.10;99.90
6863;DHT22;3470;48.738;9.616;2024-03-23T21:45:22;2.10;99.90
6863;DHT22;3470;48.738;9.616;2024-03-23T21:47:48;2.10;99.90
6863;DHT22;3470;48.738;9.616;2024-03-23T21:50:14;2.10;99.90
6863;DHT22;3470;48.738;9.616;2024-03-23T21:52:39;2.20;99.90
6863;DHT22;3470;48.738;9.616;2024-03-23T21:55:05;2.20;99.90
6863;DHT22;3470;48.738;9.616;2024-03-23T21:57:31;2.20;99.90
6863;DHT22;3470;48.738;9.616;2024-03-23T21:59:56;2.20;99.90
6863;DHT22;3470;48.738;9.616;2024-03-23T22:02:22;2.20;99.90
6863;DHT22;3470;48.738;9.616;2024-03-23T22:04:48;2.30;99.90
6863;DHT22;3470;48.738;9.616;2024-03-23T22:07:14;2.30;99.90
6863;DHT22;3470;48.738;9.616;2024-03-23T22:09:39;2.40;99.90
6863;DHT22;3470;48.738;9.616;2024-03-23T22:12:05;2.40;99.90
6863;DHT22;3470;48.738;9.616;2024-03-23T22:14:31;2.40;99.90
6863;DHT22;3470;48.738;9.616;2024-03-23T22:16:57;2.50;99.90
6863;DHT22;3470;48.738;9.616;2024-03-23T22:19:23;2.50;99.90
6863;DHT22;3470;48.738;9.616;2024-03-23T22:21:48;2.50;99.90
6863;DHT22;3470;48.738;9.616;2024-03-23T22:24:14;2.50;99.90
6863;DHT22;3470;48.738;9.616;2024-03-23T22:26:40;2.50;99.90
6863;DHT22;3470;48.738;9.616;2024-03-23T22:29:05;2.50;99.90
6863;DHT22;3470;48.738;9.616;2024-03-23T22:31:31;2.50;99.90
6863;DHT22;3470;48.738;9.616;2024-03-23T22:33:57;2.50;99.90
6863;DHT22;3470;48.738;9.616;2024-03-23T22:36:22;2.50;99.90
6863;DHT22;3470;48.738;9.616;2024-03-23T22:38:48;2.50;99.90
6863;DHT22;3470;48.738;9.616;2024-03-23T22:41:13;2.50;99.90
6863;DHT22;3470;48.738;9.616;2024-03-23T22:43:40;2.50;99.90
6863;DHT22;3470;48.738;9.616;2024-03-23T22:46:06;2.50;99.90
6863;DHT22;3470;48.738;9.616;2024-03-23T22:48:34;2.50;99.90
6863;DHT22;3470;48.738;9.616;2024-03-23T22:51:02;2.50;99.90
6863;DHT22;3470;48.738;9.616;2024-03-23T22:53:28;2.60;99.90
6863;DHT22;3470;48.738;9.616;2024-03-23T22:55:55;2.70;99.90
6863;DHT22;3470;48.738;9.616;2024-03-23T22:58:21;2.80;99.90
6863;DHT22;3470;48.738;9.616;2024-03-23T23:00:48;2.80;99.90
6863;DHT22;3470;48.738;9.616;2024-03-23T23:03:15;2.90;99.90
6863;DHT22;3470;48.738;9.616;2024-03-23T23:05:41;2.90;99.90
6863;DHT22;3470;48.738;9.616;2024-03-23T23:08:08;2.90;99.90
6863;DHT22;3470;48.738;9.616;2024-03-23T23:10:34;2.90;99.90
6863;DHT22;3470;48.738;9.616;2024-03-23T23:13:00;2.90;99.90
6863;DHT22;3470;48.738;9.616;2024-03-23T23:15:26;2.80;99.90
6863;DHT22;3470;48.738;9.616;2024-03-23T23:17:52;2.80;99.90
6863;DHT22;3470;48.738;9.616;2024-03-23T23:20:18;2.80;99.90
6863;DHT22;3470;48.738;9.616;2024-03-23T23:22:44;2.80;99.90
6863;DHT22;3470;48.738;9.616;2024-03-23T23:25:10;2.80;99.90
6863;DHT22;3470;48.738;9.616;2024-03-23T23:27:36;2.80;99.90
6863;DHT22;3470;48.738;9.616;2024-03-23T23:30:06;2.80;99.90
6863;DHT22;3470;48.738;9.616;2024-03-23T23:32:32;2.80;99.90
6863;DHT22;3470;48.738;9.616;2024-03-23T23:35:01;2.80;99.90
6863;DHT22;3470;48.738;9.616;2024-03-23T23:37:27;2.80;99.90
6863;DHT22;3470;48.738;9.616;2024-03-23T23:39:53;2.90;99.90
6863;DHT22;3470;48.738;9.616;2024-03-23T23:42:22;2.90;99.90
6863;DHT22;3470;48.738;9.616;2024-03-23T23:44:49;2.90;99.90
6863;DHT22;3470;48.738;9.616;2024-03-23T23:47:15;2.90;99.90
6863;DHT22;3470;48.738;9.616;2024-03-23T23:49:40;2.90;99.90
6863;DHT22;3470;48.738;9.616;2024-03-23T23:52:06;3.00;99.90
6863;DHT22;3470;48.738;9.616;2024-03-23T23:54:32;3.00;99.90
6863;DHT22;3470;48.738;9.616;2024-03-23T23:56:58;3.00;99.90
6863;DHT22;3470;48.738;9.616;2024-03-23T23:59:23;2.90;99.90
